This is the latest recevied weather packets stored in our database for station/object OE-11140. If no packets are shown the sender has not sent any weather packets the latest 10 day(s).
| Time | Temp. | Humidity | Pressure | Rain* | Wind** | Luminosity | Snow |
|---|---|---|---|---|---|---|---|
| 1787959516 | 15° C | 86% | 1020.5 hPa | 1.02 mm | - | 0 W/m² | - |
| 1787956516 | 16.67° C | 79% | 1019.9 hPa | 1.52 mm | - | 0 W/m² | - |
| 1787955090 | 17.78° C | 78% | 1018.3 hPa | 0.76 mm | - | 0 W/m² | - |
| 1787954716 | 18.33° C | 75% | 1017.8 hPa | 0.51 mm | - | 0 W/m² | - |
| 1787954117 | 20° C | 72% | 1016.7 hPa | 0 mm | - | 0 W/m² | - |
| 1787952916 | 20° C | 73% | 1015.6 hPa | 0 mm | - | 0 W/m² | - |
| 1787952317 | 20° C | 72% | 1015.6 hPa | 0 mm | - | 0 W/m² | - |
| 1787951489 | 20° C | 74% | 1015.4 hPa | 0 mm | - | 0 W/m² | - |
| 1787951116 | 20° C | 74% | 1015.3 hPa | 0 mm | - | 0 W/m² | - |
| 1787949316 | 20° C | 72% | 1014.5 hPa | 0 mm | - | 0 W/m² | - |
| 1787948716 | 20° C | 71% | 1014.4 hPa | 0 mm | - | 0 W/m² | - |
| 1787947516 | 20° C | 73% | 1014 hPa | 0 mm | - | 0 W/m² | - |
| 1787946916 | 20° C | 73% | 1014 hPa | 0 mm | - | 0 W/m² | - |
| 1787946090 | 19.44° C | 74% | 1013.4 hPa | 0 mm | - | 0 W/m² | - |
| 1787945716 | 20° C | 73% | 1013.2 hPa | 0 mm | - | 0 W/m² | - |
| 1787945116 | 20° C | 71% | 1013.1 hPa | 0 mm | - | 0 W/m² | - |
| 1787944289 | 20° C | 71% | 1012.9 hPa | 0 mm | - | 0 W/m² | - |
| 1787943916 | 20.56° C | 70% | 1012.9 hPa | 0 mm | - | 0 W/m² | - |
| 1787943316 | 20.56° C | 70% | 1013.1 hPa | 0 mm | - | 0 W/m² | - |
| 1787941512 | 21.11° C | 68% | 1013.2 hPa | 0 mm | - | 0 W/m² | - |
| 1787940316 | 21.11° C | 67% | 1013.1 hPa | 0 mm | - | 7 W/m² | - |
| 1787939716 | 21.67° C | 67% | 1012.9 hPa | 0 mm | - | 7 W/m² | - |
| 1787938516 | 21.67° C | 67% | 1012.6 hPa | 0 mm | - | 13 W/m² | - |
| 1787937916 | 21.67° C | 65% | 1012.8 hPa | 0 mm | - | 7 W/m² | - |
| 1787937089 | 22.22° C | 65% | 1013.2 hPa | 0 mm | - | 13 W/m² | - |
* Rain latest hour (hover to see other rain measurements)
** Current wind speed in m/s (hover to see current wind gust speed)